Time;durP1;ratioP1;P1;durP2;ratioP2;P2;SDS_P1;SDS_P2;PMS_P1;PMS_P2;Temp;Humidity;BMP_temperature;BMP_pressure;BME280_temperature;BME280_humidity;BME280_pressure;Samples;Min_cycle;Max_cycle;Signal;HPM_P1;HPM_P2
2022/04/02 00:00:29;;;;;;;25.43;22.63;;;;;;;;;;5094618;28;20454;-78
2022/04/02 00:02:57;;;;;;;25.13;22.50;;;;;;;;;;5094444;28;20987;-78
2022/04/02 00:05:27;;;;;;;26.10;23.17;;;;;;;;;;5093990;28;20448;-76
2022/04/02 00:07:54;;;;;;;27.97;22.23;;;;;;;;;;5093894;28;20941;-78
2022/04/02 00:10:21;;;;;;;25.03;21.97;;;;;;;;;;5092858;28;20857;-77
2022/04/02 00:12:48;;;;;;;25.80;23.00;;;;;;;;;;5093522;28;20450;-79
2022/04/02 00:15:15;;;;;;;25.10;22.30;;;;;;;;;;5093024;28;20468;-77
2022/04/02 00:17:42;;;;;;;27.30;22.90;;;;;;;;;;5093216;28;20901;-79
2022/04/02 00:20:11;;;;;;;25.00;22.40;;;;;;;;;;5092776;28;20489;-77
2022/04/02 00:23:35;;;;;;;25.20;22.50;;;;;;;;;;5092283;28;20935;-78
2022/04/02 00:25:25;;;;;;;25.33;22.40;;;;;;;;;;5093437;28;20432;-77
2022/04/02 00:27:52;;;;;;;26.70;24.00;;;;;;;;;;5093337;28;20436;-78
2022/04/02 00:30:19;;;;;;;26.07;23.00;;;;;;;;;;5095343;28;20447;-77
2022/04/02 00:32:46;;;;;;;24.97;22.27;;;;;;;;;;5094364;28;20435;-78
2022/04/02 00:35:15;;;;;;;23.77;21.37;;;;;;;;;;5092892;28;20514;-78
2022/04/02 00:37:42;;;;;;;25.30;22.60;;;;;;;;;;5094597;28;20479;-77
2022/04/02 00:40:10;;;;;;;25.67;23.07;;;;;;;;;;5093649;28;20432;-78
2022/04/02 00:42:37;;;;;;;25.57;22.80;;;;;;;;;;5092323;28;20866;-78
2022/04/02 00:45:04;;;;;;;24.67;21.60;;;;;;;;;;5093288;28;21022;-79
2022/04/02 00:47:31;;;;;;;25.23;22.70;;;;;;;;;;5092964;28;20428;-77
2022/04/02 00:49:58;;;;;;;23.53;21.07;;;;;;;;;;5092477;28;20457;-80
2022/04/02 00:52:27;;;;;;;25.17;22.33;;;;;;;;;;5093437;28;20452;-78
2022/04/02 00:54:55;;;;;;;24.43;21.93;;;;;;;;;;5092492;28;20472;-78
2022/04/02 00:57:22;;;;;;;26.37;23.07;;;;;;;;;;5093288;28;20487;-78
2022/04/02 00:59:50;;;;;;;25.37;22.43;;;;;;;;;;5092068;28;20804;-76
2022/04/02 01:02:18;;;;;;;25.10;22.40;;;;;;;;;;5092045;28;20958;-77
2022/04/02 01:04:47;;;;;;;23.90;21.37;;;;;;;;;;5092676;28;20463;-77
2022/04/02 01:07:14;;;;;;;26.80;22.10;;;;;;;;;;5093739;28;20468;-79
2022/04/02 01:09:42;;;;;;;23.30;20.90;;;;;;;;;;5092560;28;20452;-76
2022/04/02 01:12:10;;;;;;;23.90;21.40;;;;;;;;;;5091540;28;21020;-77
2022/04/02 01:14:37;;;;;;;24.63;22.03;;;;;;;;;;5091322;28;20459;-78
2022/04/02 01:17:05;;;;;;;23.77;21.27;;;;;;;;;;5092195;28;20483;-79
2022/04/02 01:19:33;;;;;;;27.77;23.20;;;;;;;;;;5093288;28;20462;-78
2022/04/02 01:22:01;;;;;;;25.00;22.00;;;;;;;;;;5092068;28;20489;-77
2022/04/02 01:24:28;;;;;;;26.00;21.60;;;;;;;;;;5092799;28;20467;-77
2022/04/02 01:26:55;;;;;;;23.67;21.10;;;;;;;;;;5094209;28;20432;-78
2022/04/02 01:29:22;;;;;;;25.03;21.33;;;;;;;;;;5094914;28;20935;-78
2022/04/02 01:31:50;;;;;;;24.97;22.37;;;;;;;;;;5093790;28;20435;-78
2022/04/02 01:34:17;;;;;;;26.57;21.90;;;;;;;;;;5091851;28;20464;-78
2022/04/02 01:36:44;;;;;;;27.00;22.50;;;;;;;;;;5091736;28;20525;-78
2022/04/02 01:39:12;;;;;;;25.30;21.20;;;;;;;;;;5092896;28;20447;-77
2022/04/02 01:41:39;;;;;;;23.10;20.70;;;;;;;;;;5091942;28;20867;-77
2022/04/02 01:44:06;;;;;;;24.63;22.07;;;;;;;;;;5092376;28;20464;-79
2022/04/02 01:46:33;;;;;;;22.13;19.93;;;;;;;;;;5091389;28;20431;-78
2022/04/02 01:49:00;;;;;;;24.20;20.50;;;;;;;;;;5094150;28;20447;-77
2022/04/02 01:51:27;;;;;;;23.67;20.67;;;;;;;;;;5091599;28;20501;-77
2022/04/02 01:53:54;;;;;;;22.20;19.63;;;;;;;;;;5091412;28;20539;-77
2022/04/02 01:56:22;;;;;;;23.70;21.20;;;;;;;;;;5096107;28;20439;-76
2022/04/02 01:58:49;;;;;;;22.77;20.33;;;;;;;;;;5095569;28;20919;-78
2022/04/02 02:01:17;;;;;;;22.70;20.37;;;;;;;;;;5098278;28;20476;-78
2022/04/02 02:03:44;;;;;;;21.07;18.87;;;;;;;;;;5098125;28;20474;-78
2022/04/02 02:06:11;;;;;;;24.83;22.23;;;;;;;;;;5095718;28;20951;-78
2022/04/02 02:08:39;;;;;;;22.37;20.17;;;;;;;;;;5095454;28;20435;-78
2022/04/02 02:11:06;;;;;;;23.13;19.70;;;;;;;;;;5097057;28;20452;-78
2022/04/02 02:13:34;;;;;;;21.97;19.53;;;;;;;;;;5096512;28;20447;-79
2022/04/02 02:16:01;;;;;;;22.40;20.10;;;;;;;;;;5095040;28;20505;-77
2022/04/02 02:18:28;;;;;;;19.73;17.73;;;;;;;;;;5096370;28;20472;-77
2022/04/02 02:20:55;;;;;;;19.80;17.80;;;;;;;;;;5095568;28;20935;-77
2022/04/02 02:23:22;;;;;;;21.27;19.17;;;;;;;;;;5094901;28;20517;-76
2022/04/02 02:25:49;;;;;;;20.73;18.83;;;;;;;;;;5097848;28;20432;-78
2022/04/02 02:28:16;;;;;;;20.13;18.03;;;;;;;;;;5099480;28;20440;-79
2022/04/02 02:30:46;;;;;;;20.73;18.63;;;;;;;;;;5095745;28;20479;-78
2022/04/02 02:36:12;;;;;;;20.33;18.40;;;;;;;;;;5071885;28;20791;-80
2022/04/02 02:38:39;;;;;;;19.00;17.10;;;;;;;;;;5072760;28;20517;-76
2022/04/02 02:41:07;;;;;;;19.60;17.60;;;;;;;;;;5081387;28;20466;-77
2022/04/02 02:43:34;;;;;;;19.10;17.17;;;;;;;;;;5094374;28;20835;-77
2022/04/02 02:46:02;;;;;;;19.97;17.97;;;;;;;;;;5087334;28;20443;-78
2022/04/02 02:48:29;;;;;;;17.43;15.73;;;;;;;;;;5094237;28;20436;-78
2022/04/02 02:50:56;;;;;;;18.93;17.10;;;;;;;;;;5082425;28;20436;-77
2022/04/02 02:53:23;;;;;;;18.20;16.50;;;;;;;;;;5074980;28;20456;-78
2022/04/02 02:55:50;;;;;;;18.73;16.97;;;;;;;;;;5076090;28;20509;-77
2022/04/02 02:58:17;;;;;;;18.53;16.80;;;;;;;;;;5075607;28;20509;-80
2022/04/02 03:00:46;;;;;;;17.90;15.90;;;;;;;;;;5074249;28;20916;-77
2022/04/02 03:03:14;;;;;;;16.90;15.23;;;;;;;;;;5078353;28;20928;-77
2022/04/02 03:05:41;;;;;;;18.17;16.27;;;;;;;;;;5087971;28;20431;-78
2022/04/02 03:08:08;;;;;;;17.47;15.53;;;;;;;;;;5098023;28;20428;-77
2022/04/02 03:10:36;;;;;;;18.23;15.77;;;;;;;;;;5095922;28;20444;-78
2022/04/02 03:13:03;;;;;;;16.70;15.00;;;;;;;;;;5093075;28;20502;-77
2022/04/02 03:15:30;;;;;;;16.70;15.00;;;;;;;;;;5094741;28;20432;-76
2022/04/02 03:18:03;;;;;;;22.10;14.83;;;;;;;;;;5093492;28;20980;-77
2022/04/02 03:20:31;;;;;;;16.67;15.03;;;;;;;;;;5094250;28;20463;-77
2022/04/02 03:22:58;;;;;;;15.83;14.20;;;;;;;;;;5094115;28;20448;-79
2022/04/02 03:25:25;;;;;;;16.13;14.60;;;;;;;;;;5094006;28;20458;-77
2022/04/02 03:27:53;;;;;;;15.87;13.80;;;;;;;;;;5097694;28;20450;-78
2022/04/02 03:30:21;;;;;;;15.90;14.30;;;;;;;;;;5094907;28;20444;-78
2022/04/02 03:32:49;;;;;;;15.97;14.47;;;;;;;;;;5096968;28;20448;-79
2022/04/02 03:35:16;;;;;;;18.60;13.90;;;;;;;;;;5093376;28;20850;-78
2022/04/02 03:37:46;;;;;;;19.27;14.77;;;;;;;;;;5094066;28;20486;-79
2022/04/02 03:40:14;;;;;;;14.50;13.10;;;;;;;;;;5094017;28;20841;-77
2022/04/02 03:42:42;;;;;;;16.37;14.40;;;;;;;;;;5097466;28;20440;-78
2022/04/02 03:45:10;;;;;;;13.90;12.47;;;;;;;;;;5094711;28;20542;-77
2022/04/02 03:47:37;;;;;;;18.03;13.93;;;;;;;;;;5095915;28;20432;-78
2022/04/02 03:50:04;;;;;;;19.73;12.37;;;;;;;;;;5096778;28;20443;-77
2022/04/02 03:52:31;;;;;;;16.00;12.80;;;;;;;;;;5095430;28;20846;-78
2022/04/02 03:55:00;;;;;;;17.70;13.83;;;;;;;;;;5095539;28;20517;-78
2022/04/02 03:57:27;;;;;;;20.67;12.67;;;;;;;;;;5094189;28;20542;-77
2022/04/02 03:59:54;;;;;;;13.30;12.00;;;;;;;;;;5094317;28;20815;-79
2022/04/02 04:02:22;;;;;;;15.30;12.20;;;;;;;;;;5094418;28;20493;-78
2022/04/02 04:04:49;;;;;;;16.90;13.30;;;;;;;;;;5093822;28;20483;-77
2022/04/02 04:07:16;;;;;;;12.80;11.47;;;;;;;;;;5096317;28;20463;-77
2022/04/02 04:09:43;;;;;;;15.23;11.60;;;;;;;;;;5096381;28;20443;-78
2022/04/02 04:12:14;;;;;;;13.43;12.03;;;;;;;;;;5101090;28;20462;-77
2022/04/02 04:14:41;;;;;;;12.53;10.67;;;;;;;;;;5102156;28;20847;-79
2022/04/02 04:17:08;;;;;;;13.30;11.90;;;;;;;;;;5101153;28;20436;-76
2022/04/02 04:19:35;;;;;;;12.97;11.60;;;;;;;;;;5101562;28;20436;-77
2022/04/02 04:22:04;;;;;;;14.13;12.40;;;;;;;;;;5099998;28;20447;-78
2022/04/02 04:24:32;;;;;;;16.63;12.20;;;;;;;;;;5098208;28;20469;-77
2022/04/02 04:26:59;;;;;;;13.63;11.50;;;;;;;;;;5098807;28;20589;-78
2022/04/02 04:29:27;;;;;;;16.03;11.33;;;;;;;;;;5093255;28;20935;-77
2022/04/02 04:31:54;;;;;;;14.53;12.43;;;;;;;;;;5074569;28;20444;-78
2022/04/02 04:34:21;;;;;;;16.90;13.07;;;;;;;;;;5075940;28;20518;-78
2022/04/02 04:36:49;;;;;;;14.63;13.20;;;;;;;;;;5090079;28;20534;-78
2022/04/02 04:39:16;;;;;;;17.13;15.13;;;;;;;;;;5072567;28;20480;-79
2022/04/02 04:41:43;;;;;;;16.17;14.57;;;;;;;;;;5073423;28;20924;-78
2022/04/02 04:44:10;;;;;;;16.77;15.00;;;;;;;;;;5080707;28;20524;-78
2022/04/02 04:46:39;;;;;;;17.00;15.20;;;;;;;;;;5095191;28;20501;-78
2022/04/02 04:49:06;;;;;;;15.70;14.10;;;;;;;;;;5088685;28;20441;-79
2022/04/02 04:51:34;;;;;;;17.23;15.43;;;;;;;;;;5078205;28;20451;-78
2022/04/02 04:54:01;;;;;;;17.43;15.60;;;;;;;;;;5083928;28;20464;-78
2022/04/02 04:56:28;;;;;;;18.07;16.17;;;;;;;;;;5093346;28;20444;-78
2022/04/02 04:58:55;;;;;;;17.53;15.77;;;;;;;;;;5093763;28;20563;-78
2022/04/02 05:01:22;;;;;;;17.40;15.50;;;;;;;;;;5087994;28;20467;-78
2022/04/02 05:03:51;;;;;;;18.90;15.40;;;;;;;;;;5073944;28;21034;-77
2022/04/02 05:06:19;;;;;;;17.43;15.53;;;;;;;;;;5086157;28;20451;-79
2022/04/02 05:08:46;;;;;;;18.67;16.10;;;;;;;;;;5093582;28;20853;-78
2022/04/02 05:11:13;;;;;;;16.93;15.13;;;;;;;;;;5092685;28;20897;-77
2022/04/02 05:13:41;;;;;;;17.93;16.00;;;;;;;;;;5093212;28;20836;-77
2022/04/02 05:16:08;;;;;;;19.50;17.50;;;;;;;;;;5093710;28;20474;-77
2022/04/02 05:18:36;;;;;;;17.57;15.73;;;;;;;;;;5087557;28;20578;-79
2022/04/02 05:21:04;;;;;;;17.10;15.30;;;;;;;;;;5088480;28;20449;-77
2022/04/02 05:23:31;;;;;;;17.50;15.67;;;;;;;;;;5086917;28;20464;-78
2022/04/02 05:25:59;;;;;;;17.97;15.40;;;;;;;;;;5080472;28;20502;-79
2022/04/02 05:28:26;;;;;;;15.93;14.40;;;;;;;;;;5073375;28;20463;-78
2022/04/02 05:30:53;;;;;;;16.73;14.93;;;;;;;;;;5078750;28;20441;-77
2022/04/02 05:33:21;;;;;;;17.23;14.07;;;;;;;;;;5099063;28;20473;-80
2022/04/02 05:35:48;;;;;;;15.70;13.97;;;;;;;;;;5100187;28;20448;-79
2022/04/02 05:38:17;;;;;;;15.43;13.93;;;;;;;;;;5098604;28;20913;-78
2022/04/02 05:40:44;;;;;;;14.97;13.50;;;;;;;;;;5101672;28;20922;-78
2022/04/02 05:43:11;;;;;;;16.13;14.40;;;;;;;;;;5101585;28;20467;-79
2022/04/02 05:45:38;;;;;;;16.60;15.10;;;;;;;;;;5099044;28;20497;-77
2022/04/02 05:48:05;;;;;;;16.50;14.83;;;;;;;;;;5100491;28;20456;-79
2022/04/02 05:50:32;;;;;;;15.70;13.60;;;;;;;;;;5104511;28;20444;-78
2022/04/02 05:53:00;;;;;;;15.10;13.60;;;;;;;;;;5102289;28;20427;-79
2022/04/02 05:55:29;;;;;;;15.53;14.13;;;;;;;;;;5097397;28;20443;-78
2022/04/02 05:57:57;;;;;;;17.27;15.50;;;;;;;;;;5098810;28;20483;-80
2022/04/02 06:00:24;;;;;;;15.70;14.10;;;;;;;;;;5097426;28;20942;-79
2022/04/02 06:02:51;;;;;;;18.03;16.20;;;;;;;;;;5096742;28;20452;-80
2022/04/02 06:05:18;;;;;;;15.23;13.73;;;;;;;;;;5097744;28;20491;-77
2022/04/02 06:07:45;;;;;;;14.83;13.50;;;;;;;;;;5098000;28;20454;-80
2022/04/02 06:10:13;;;;;;;15.90;14.40;;;;;;;;;;5095861;28;20936;-77
2022/04/02 06:12:42;;;;;;;15.67;13.97;;;;;;;;;;5098004;28;20463;-80
2022/04/02 06:15:10;;;;;;;15.43;13.83;;;;;;;;;;5096718;28;20455;-80
2022/04/02 06:17:38;;;;;;;17.43;15.53;;;;;;;;;;5096626;28;20493;-80
2022/04/02 06:20:06;;;;;;;19.70;14.53;;;;;;;;;;5096535;28;20435;-77
2022/04/02 06:22:34;;;;;;;15.30;13.70;;;;;;;;;;5097013;28;20929;-77
2022/04/02 06:25:01;;;;;;;14.70;13.37;;;;;;;;;;5097532;28;20472;-77
2022/04/02 06:27:28;;;;;;;13.67;12.27;;;;;;;;;;5096232;28;20428;-80
2022/04/02 06:29:58;;;;;;;15.03;13.60;;;;;;;;;;5097536;28;20681;-77
2022/04/02 06:32:25;;;;;;;14.47;13.17;;;;;;;;;;5096357;28;20601;-78
2022/04/02 06:34:53;;;;;;;14.13;12.80;;;;;;;;;;5095711;28;20467;-79
2022/04/02 06:37:20;;;;;;;13.80;12.37;;;;;;;;;;5101958;28;20471;-77
2022/04/02 06:39:47;;;;;;;14.53;13.00;;;;;;;;;;5107794;28;20475;-82
2022/04/02 06:42:14;;;;;;;12.20;11.00;;;;;;;;;;5096786;28;20935;-79
2022/04/02 06:44:41;;;;;;;13.97;12.70;;;;;;;;;;5095633;28;20984;-78
2022/04/02 06:47:09;;;;;;;13.67;11.80;;;;;;;;;;5096545;28;20444;-77
2022/04/02 06:49:37;;;;;;;13.00;11.70;;;;;;;;;;5089359;28;20913;-80
2022/04/02 06:52:04;;;;;;;13.30;12.07;;;;;;;;;;5097696;28;20451;-78
2022/04/02 06:54:37;;;;;;;13.87;12.60;;;;;;;;;;5097348;28;20463;-79
2022/04/02 06:57:04;;;;;;;13.03;11.93;;;;;;;;;;5079758;28;20524;-79
2022/04/02 06:59:31;;;;;;;13.10;11.70;;;;;;;;;;5076723;28;20472;-79
2022/04/02 07:01:58;;;;;;;12.93;11.73;;;;;;;;;;5076022;28;20820;-78
2022/04/02 07:04:26;;;;;;;13.90;12.57;;;;;;;;;;5076244;28;20456;-79
2022/04/02 07:06:53;;;;;;;13.50;12.20;;;;;;;;;;5094511;28;20526;-79
2022/04/02 07:09:20;;;;;;;13.37;12.17;;;;;;;;;;5096257;28;20439;-78
2022/04/02 07:11:47;;;;;;;12.93;11.83;;;;;;;;;;5096747;28;20801;-78
2022/04/02 07:14:14;;;;;;;12.87;11.73;;;;;;;;;;5097092;28;20460;-78
2022/04/02 07:16:41;;;;;;;12.57;11.30;;;;;;;;;;5098435;28;20500;-80
2022/04/02 07:19:09;;;;;;;11.90;10.80;;;;;;;;;;5097424;28;20548;-79
2022/04/02 07:21:38;;;;;;;12.53;11.43;;;;;;;;;;5096307;28;20809;-78
2022/04/02 07:24:06;;;;;;;15.87;12.03;;;;;;;;;;5094538;28;20580;-79
2022/04/02 07:26:33;;;;;;;11.90;10.70;;;;;;;;;;5087795;28;20479;-79
2022/04/02 07:29:01;;;;;;;13.03;11.70;;;;;;;;;;5097492;28;20443;-77
2022/04/02 07:31:28;;;;;;;13.30;12.00;;;;;;;;;;5095337;28;20454;-76
2022/04/02 07:33:55;;;;;;;13.23;11.93;;;;;;;;;;5099940;28;20484;-77
2022/04/02 07:36:27;;;;;;;13.40;12.17;;;;;;;;;;5102611;28;20456;-77
2022/04/02 07:39:00;;;;;;;13.00;11.70;;;;;;;;;;5098859;28;20502;-79
2022/04/02 07:41:33;;;;;;;13.87;12.47;;;;;;;;;;5076773;28;20531;-78
2022/04/02 07:44:03;;;;;;;16.50;11.80;;;;;;;;;;5076084;28;20460;-79
2022/04/02 07:46:31;;;;;;;14.03;12.27;;;;;;;;;;5075442;28;20549;-78
2022/04/02 07:48:59;;;;;;;11.40;10.20;;;;;;;;;;5075266;28;20432;-76
2022/04/02 07:51:28;;;;;;;13.13;11.70;;;;;;;;;;5074638;28;20809;-77
2022/04/02 07:53:56;;;;;;;11.40;10.33;;;;;;;;;;5082740;28;20468;-79
2022/04/02 07:56:28;;;;;;;12.20;11.00;;;;;;;;;;5074466;28;20472;-77
2022/04/02 07:58:59;;;;;;;11.80;10.70;;;;;;;;;;5074911;28;20465;-78
2022/04/02 08:01:26;;;;;;;12.00;10.80;;;;;;;;;;5074861;28;20436;-79
2022/04/02 08:03:54;;;;;;;12.60;11.30;;;;;;;;;;5074650;28;20995;-79
2022/04/02 08:06:21;;;;;;;12.40;11.03;;;;;;;;;;5086888;28;20440;-79
2022/04/02 08:08:48;;;;;;;11.73;10.53;;;;;;;;;;5094115;28;20444;-78
2022/04/02 08:11:17;;;;;;;13.87;11.17;;;;;;;;;;5095785;28;20443;-80
2022/04/02 08:13:46;;;;;;;12.83;10.47;;;;;;;;;;5096123;28;20470;-78
2022/04/02 08:16:14;;;;;;;11.70;10.50;;;;;;;;;;5095264;28;20500;-81
2022/04/02 08:18:42;;;;;;;12.27;11.17;;;;;;;;;;5094474;28;20476;-79
2022/04/02 08:21:10;;;;;;;12.60;11.37;;;;;;;;;;5095507;28;20447;-79
2022/04/02 08:23:37;;;;;;;12.97;10.57;;;;;;;;;;5094927;28;20546;-79
2022/04/02 08:26:11;;;;;;;11.73;10.63;;;;;;;;;;5094630;28;20451;-80
2022/04/02 08:28:45;;;;;;;12.60;11.30;;;;;;;;;;5094489;28;20491;-80
2022/04/02 08:31:20;;;;;;;11.07;10.07;;;;;;;;;;5094971;28;20438;-79
2022/04/02 08:33:52;;;;;;;12.00;10.83;;;;;;;;;;5094174;28;20524;-79
2022/04/02 08:36:23;;;;;;;13.10;10.70;;;;;;;;;;5094244;28;20440;-78
2022/04/02 08:38:54;;;;;;;12.50;11.40;;;;;;;;;;5094742;28;20463;-78
2022/04/02 08:41:34;;;;;;;12.37;11.20;;;;;;;;;;5094748;28;20432;-77
2022/04/02 08:44:18;;;;;;;10.63;9.63;;;;;;;;;;5093529;28;20491;-78
2022/04/02 08:46:55;;;;;;;11.70;10.63;;;;;;;;;;5093640;28;20455;-80
2022/04/02 08:49:23;;;;;;;12.37;11.07;;;;;;;;;;5094239;28;20447;-78
2022/04/02 08:52:02;;;;;;;12.47;11.27;;;;;;;;;;5094666;28;20481;-78
2022/04/02 08:54:30;;;;;;;12.80;11.40;;;;;;;;;;5093764;28;20542;-78
2022/04/02 08:56:59;;;;;;;12.67;11.40;;;;;;;;;;5087738;28;20448;-78
2022/04/02 08:59:34;;;;;;;12.23;11.13;;;;;;;;;;5089236;28;20930;-78
2022/04/02 09:02:13;;;;;;;12.60;11.40;;;;;;;;;;5087841;28;20519;-78
2022/04/02 09:05:13;;;;;;;14.80;11.87;;;;;;;;;;5092571;28;20467;-77
2022/04/02 09:07:55;;;;;;;12.73;11.63;;;;;;;;;;5012748;28;20428;-78
2022/04/02 09:10:32;;;;;;;13.47;12.13;;;;;;;;;;5012532;28;20443;-76
2022/04/02 09:13:18;;;;;;;12.93;11.63;;;;;;;;;;5049634;28;20444;-78
2022/04/02 09:15:51;;;;;;;13.23;11.93;;;;;;;;;;5075839;28;20419;-78
2022/04/02 09:18:26;;;;;;;22.17;13.33;;;;;;;;;;5076685;28;20440;-78
2022/04/02 09:20:55;;;;;;;13.57;12.27;;;;;;;;;;5074130;28;20465;-77
2022/04/02 09:23:31;;;;;;;13.87;12.47;;;;;;;;;;5073656;28;20476;-77
2022/04/02 09:26:16;;;;;;;13.87;11.67;;;;;;;;;;5074306;28;20433;-77
2022/04/02 09:28:44;;;;;;;14.07;12.67;;;;;;;;;;5074485;28;20451;-77
2022/04/02 09:31:36;;;;;;;16.40;13.30;;;;;;;;;;5073208;28;20441;-77
2022/04/02 09:34:18;;;;;;;15.33;13.10;;;;;;;;;;5073095;28;20445;-81
2022/04/02 09:36:53;;;;;;;13.77;12.43;;;;;;;;;;5073845;28;20440;-78
2022/04/02 09:39:23;;;;;;;12.80;11.40;;;;;;;;;;5073869;28;20938;-79
2022/04/02 09:42:16;;;;;;;14.20;11.83;;;;;;;;;;5074227;28;20456;-79
2022/04/02 09:44:53;;;;;;;13.53;12.13;;;;;;;;;;5072898;28;20459;-81
2022/04/02 09:47:22;;;;;;;13.67;12.30;;;;;;;;;;5072931;28;20455;-77
2022/04/02 09:50:04;;;;;;;14.63;12.03;;;;;;;;;;5072993;28;20448;-80
2022/04/02 09:52:32;;;;;;;13.50;12.10;;;;;;;;;;5073175;28;20425;-79
2022/04/02 09:55:09;;;;;;;14.00;12.67;;;;;;;;;;5073103;28;20467;-79
2022/04/02 09:57:39;;;;;;;15.10;12.90;;;;;;;;;;5072991;28;20831;-80
2022/04/02 10:00:07;;;;;;;13.17;11.83;;;;;;;;;;5072990;28;20520;-79
2022/04/02 10:02:41;;;;;;;13.83;12.50;;;;;;;;;;5073137;28;20456;-79
2022/04/02 10:05:14;;;;;;;17.90;12.23;;;;;;;;;;5075397;28;20462;-77
2022/04/02 10:07:48;;;;;;;14.53;12.57;;;;;;;;;;5093125;28;20456;-79
2022/04/02 10:10:16;;;;;;;15.37;13.80;;;;;;;;;;5092727;28;20938;-78
2022/04/02 10:12:46;;;;;;;13.53;12.20;;;;;;;;;;5092874;28;20481;-77
2022/04/02 10:15:14;;;;;;;14.13;12.50;;;;;;;;;;5094661;28;20467;-77
2022/04/02 10:17:46;;;;;;;11.47;10.33;;;;;;;;;;5097467;28;20451;-78
2022/04/02 10:20:15;;;;;;;13.73;12.30;;;;;;;;;;5097158;28;20468;-80
2022/04/02 10:22:43;;;;;;;15.43;13.70;;;;;;;;;;5097648;28;20487;-77
2022/04/02 10:25:11;;;;;;;15.27;13.37;;;;;;;;;;5097066;28;20852;-77
2022/04/02 10:27:39;;;;;;;13.50;12.30;;;;;;;;;;5097064;28;20514;-78
2022/04/02 10:30:09;;;;;;;15.70;13.20;;;;;;;;;;5096896;28;20448;-79
2022/04/02 10:32:51;;;;;;;14.77;13.27;;;;;;;;;;5097223;28;20889;-77
2022/04/02 10:35:21;;;;;;;13.63;12.33;;;;;;;;;;5095452;28;20566;-77
2022/04/02 10:38:00;;;;;;;13.40;12.17;;;;;;;;;;5097253;28;20874;-78
2022/04/02 10:40:29;;;;;;;14.93;13.43;;;;;;;;;;5096528;28;20471;-78
2022/04/02 10:42:59;;;;;;;13.47;12.27;;;;;;;;;;5096678;28;20794;-79
2022/04/02 10:45:29;;;;;;;13.97;12.67;;;;;;;;;;5094052;28;20475;-77
2022/04/02 10:47:58;;;;;;;12.80;11.50;;;;;;;;;;5096426;28;20538;-79
2022/04/02 10:50:28;;;;;;;13.50;12.17;;;;;;;;;;5092642;28;20593;-79
2022/04/02 10:52:56;;;;;;;12.47;11.17;;;;;;;;;;5078422;28;20437;-79
2022/04/02 10:55:24;;;;;;;13.70;12.50;;;;;;;;;;5076506;28;20471;-81
2022/04/02 10:57:51;;;;;;;14.53;12.53;;;;;;;;;;5075943;28;20453;-78
2022/04/02 11:00:19;;;;;;;13.77;12.43;;;;;;;;;;5076326;28;20472;-81
2022/04/02 11:02:46;;;;;;;14.80;13.30;;;;;;;;;;5075630;28;20614;-78
2022/04/02 11:05:14;;;;;;;13.90;12.60;;;;;;;;;;5080624;28;20573;-79
2022/04/02 11:07:44;;;;;;;14.23;12.73;;;;;;;;;;5095657;28;20451;-78
2022/04/02 11:10:13;;;;;;;13.97;12.50;;;;;;;;;;5096445;28;20441;-80
2022/04/02 11:12:44;;;;;;;13.70;12.30;;;;;;;;;;5093204;28;20482;-78
2022/04/02 11:15:12;;;;;;;12.97;11.67;;;;;;;;;;5095241;28;20495;-79
2022/04/02 11:17:41;;;;;;;14.10;12.70;;;;;;;;;;5095775;28;20448;-78
2022/04/02 11:20:09;;;;;;;14.90;13.40;;;;;;;;;;5097844;28;20472;-79
2022/04/02 11:22:39;;;;;;;14.07;12.57;;;;;;;;;;5101138;28;20444;-80
2022/04/02 11:25:09;;;;;;;14.97;13.30;;;;;;;;;;5096644;28;20932;-78
2022/04/02 11:27:37;;;;;;;15.90;14.30;;;;;;;;;;5096682;28;20447;-78
2022/04/02 11:30:06;;;;;;;14.90;13.30;;;;;;;;;;5098395;28;20539;-78
2022/04/02 11:32:38;;;;;;;15.27;13.70;;;;;;;;;;5102465;28;20440;-76
2022/04/02 11:35:08;;;;;;;15.40;13.77;;;;;;;;;;5097319;28;20479;-79
2022/04/02 11:37:39;;;;;;;16.30;14.70;;;;;;;;;;5088045;28;20971;-79
2022/04/02 11:40:08;;;;;;;16.00;14.37;;;;;;;;;;5093999;28;20468;-81
2022/04/02 11:42:38;;;;;;;14.80;13.40;;;;;;;;;;5098395;28;20450;-78
2022/04/02 11:45:09;;;;;;;15.60;13.97;;;;;;;;;;5095607;28;20518;-77
2022/04/02 11:47:37;;;;;;;15.07;13.50;;;;;;;;;;5091885;28;20440;-80
2022/04/02 11:50:05;;;;;;;14.90;13.50;;;;;;;;;;5074557;28;20440;-78
2022/04/02 11:52:47;;;;;;;15.43;14.10;;;;;;;;;;5073972;28;20429;-77
2022/04/02 11:55:15;;;;;;;15.10;13.70;;;;;;;;;;5075146;28;20448;-80
2022/04/02 11:57:56;;;;;;;15.50;14.03;;;;;;;;;;5075654;28;20440;-78
2022/04/02 12:00:26;;;;;;;14.70;13.30;;;;;;;;;;5074650;28;20480;-77
2022/04/02 12:02:53;;;;;;;15.07;13.67;;;;;;;;;;5073892;28;20543;-78
2022/04/02 12:05:21;;;;;;;14.63;13.10;;;;;;;;;;5079272;28;20959;-80
2022/04/02 12:07:49;;;;;;;15.90;14.20;;;;;;;;;;5094251;28;20468;-77
2022/04/02 12:10:16;;;;;;;17.23;15.53;;;;;;;;;;5093944;28;20775;-78
2022/04/02 12:12:44;;;;;;;15.40;14.00;;;;;;;;;;5094214;28;20946;-79
2022/04/02 12:15:13;;;;;;;17.47;15.67;;;;;;;;;;5094562;28;20459;-79
2022/04/02 12:17:41;;;;;;;17.80;16.00;;;;;;;;;;5093915;28;20525;-75
2022/04/02 12:20:08;;;;;;;17.90;16.10;;;;;;;;;;5092804;28;20475;-78
2022/04/02 12:22:39;;;;;;;17.60;15.90;;;;;;;;;;5092317;28;20448;-77
2022/04/02 12:25:07;;;;;;;19.10;16.20;;;;;;;;;;5092561;28;20503;-77
2022/04/02 12:27:35;;;;;;;19.00;16.53;;;;;;;;;;5092905;28;20538;-78
2022/04/02 12:30:04;;;;;;;18.90;17.00;;;;;;;;;;5093627;28;20436;-80
2022/04/02 12:32:35;;;;;;;18.87;16.90;;;;;;;;;;5085804;28;20436;-81
2022/04/02 12:35:03;;;;;;;17.93;16.10;;;;;;;;;;5083222;28;20972;-77
2022/04/02 12:37:31;;;;;;;18.93;17.03;;;;;;;;;;5082881;28;20934;-79
2022/04/02 12:39:59;;;;;;;19.03;17.00;;;;;;;;;;5089871;28;20525;-77
2022/04/02 12:42:37;;;;;;;20.73;18.73;;;;;;;;;;5093071;28;20448;-76
2022/04/02 12:45:08;;;;;;;18.77;16.83;;;;;;;;;;5092991;28;20463;-76
2022/04/02 12:47:36;;;;;;;19.67;17.27;;;;;;;;;;5092416;28;20452;-78
2022/04/02 12:50:14;;;;;;;21.17;17.73;;;;;;;;;;5092696;28;20459;-77
2022/04/02 12:52:45;;;;;;;18.90;16.97;;;;;;;;;;5093258;28;20440;-78
2022/04/02 12:55:17;;;;;;;21.03;19.03;;;;;;;;;;5092464;28;20505;-79
2022/04/02 12:57:46;;;;;;;20.13;17.93;;;;;;;;;;5092656;28;20479;-77
2022/04/02 13:00:25;;;;;;;18.63;16.10;;;;;;;;;;5092603;28;20529;-78
2022/04/02 13:02:56;;;;;;;18.70;16.00;;;;;;;;;;5093131;28;20875;-77
2022/04/02 13:05:25;;;;;;;17.00;15.20;;;;;;;;;;5092201;28;20513;-75
2022/04/02 13:07:56;;;;;;;17.70;15.80;;;;;;;;;;5092808;28;20444;-77
2022/04/02 13:10:24;;;;;;;17.27;15.47;;;;;;;;;;5092389;28;20416;-78
2022/04/02 13:12:53;;;;;;;17.30;15.60;;;;;;;;;;5092809;28;20455;-77
2022/04/02 13:15:22;;;;;;;17.30;15.60;;;;;;;;;;5093191;28;20456;-78
2022/04/02 13:20:35;;;;;;;15.80;14.23;;;;;;;;;;5083365;28;20471;-77
2022/04/02 13:23:03;;;;;;;18.70;15.10;;;;;;;;;;5071437;28;20920;-76
2022/04/02 13:25:31;;;;;;;16.90;15.30;;;;;;;;;;5071942;28;20445;-77
2022/04/02 13:28:19;;;;;;;18.80;16.90;;;;;;;;;;5071543;28;20453;-78
2022/04/02 13:30:50;;;;;;;16.30;14.50;;;;;;;;;;5064509;28;20437;-78
2022/04/02 13:33:32;;;;;;;16.23;14.50;;;;;;;;;;5071201;28;20946;-78
2022/04/02 13:36:15;;;;;;;17.50;15.70;;;;;;;;;;5071914;28;20928;-80
2022/04/02 13:38:52;;;;;;;16.40;14.70;;;;;;;;;;5072122;28;20978;-80
2022/04/02 13:41:26;;;;;;;19.60;16.20;;;;;;;;;;5072172;28;20918;-79
2022/04/02 13:43:54;;;;;;;19.20;17.30;;;;;;;;;;5071460;28;21321;-78
2022/04/02 13:46:23;;;;;;;19.20;17.30;;;;;;;;;;5072523;28;20936;-77
2022/04/02 13:48:56;;;;;;;16.93;15.30;;;;;;;;;;5072196;28;20484;-79
2022/04/02 13:51:32;;;;;;;17.53;15.73;;;;;;;;;;5075931;28;20843;-77
2022/04/02 13:54:04;;;;;;;18.90;16.83;;;;;;;;;;5075821;28;20535;-79
2022/04/02 13:56:34;;;;;;;19.73;17.63;;;;;;;;;;5076544;28;20500;-79
2022/04/02 13:59:02;;;;;;;18.57;16.63;;;;;;;;;;5075812;28;20950;-78
2022/04/02 14:01:30;;;;;;;18.30;16.50;;;;;;;;;;5076235;28;21060;-77
2022/04/02 14:04:05;;;;;;;18.97;17.00;;;;;;;;;;5075249;28;20526;-78
2022/04/02 14:06:34;;;;;;;18.87;17.00;;;;;;;;;;5076044;28;20451;-79
2022/04/02 14:09:04;;;;;;;16.93;15.13;;;;;;;;;;5075967;28;20456;-79
2022/04/02 14:11:35;;;;;;;19.00;17.00;;;;;;;;;;5076161;28;20888;-78
2022/04/02 14:14:15;;;;;;;19.57;17.60;;;;;;;;;;5075741;28;20468;-78
2022/04/02 14:16:47;;;;;;;19.80;17.67;;;;;;;;;;5075974;28;20463;-78
2022/04/02 14:19:17;;;;;;;17.60;15.73;;;;;;;;;;5074669;28;20436;-77
2022/04/02 14:21:45;;;;;;;18.50;16.67;;;;;;;;;;5075358;28;20847;-76
2022/04/02 14:24:14;;;;;;;18.83;16.47;;;;;;;;;;5088551;28;20464;-76
2022/04/02 14:26:58;;;;;;;18.10;16.30;;;;;;;;;;5096061;28;20938;-77
2022/04/02 14:29:32;;;;;;;17.47;15.70;;;;;;;;;;5095228;28;20440;-78
2022/04/02 14:32:18;;;;;;;17.40;15.67;;;;;;;;;;5095155;28;20427;-75
2022/04/02 14:34:53;;;;;;;20.10;16.60;;;;;;;;;;5093941;28;20463;-77